Time;durP1;ratioP1;P1;durP2;ratioP2;P2;SDS_P1;SDS_P2;PMS_P1;PMS_P2;Temp;Humidity;BMP_temperature;BMP_pressure;BME280_temperature;BME280_humidity;BME280_pressure;Samples;Min_cycle;Max_cycle;Signal;HPM_P1;HPM_P2
2021/04/20 00:01:53;;;;;;;135.93;55.90;;;3.40;99.90;;;;;;5050628;28;20033;-62
2021/04/20 00:04:19;;;;;;;138.15;56.13;;;3.40;99.90;;;;;;5065660;28;20047;-62
2021/04/20 00:06:44;;;;;;;138.02;55.60;;;3.40;99.90;;;;;;5061907;28;20024;-63
2021/04/20 00:09:10;;;;;;;157.93;61.97;;;3.30;99.90;;;;;;5054947;28;20020;-61
2021/04/20 00:11:37;;;;;;;149.10;58.45;;;3.30;99.90;;;;;;5071460;28;20055;-61
2021/04/20 00:14:08;;;;;;;141.55;55.28;;;3.30;99.90;;;;;;5051754;28;20029;-61
2021/04/20 00:16:34;;;;;;;131.98;52.67;;;3.30;99.90;;;;;;5057826;28;20105;-64
2021/04/20 00:19:01;;;;;;;149.70;56.58;;;3.20;99.90;;;;;;5061883;28;20469;-61
2021/04/20 00:21:27;;;;;;;133.60;53.90;;;3.20;99.90;;;;;;5070831;28;20501;-62
2021/04/20 00:23:53;;;;;;;121.35;50.55;;;3.10;99.90;;;;;;5070055;28;20072;-62
2021/04/20 00:26:18;;;;;;;114.60;48.67;;;3.10;99.90;;;;;;5055353;28;20470;-62
2021/04/20 00:28:44;;;;;;;131.38;51.90;;;3.00;99.90;;;;;;5054754;28;20078;-62
2021/04/20 00:31:10;;;;;;;139.73;55.05;;;3.00;99.90;;;;;;5061868;28;20030;-62
2021/04/20 00:33:35;;;;;;;142.00;54.50;;;3.00;99.90;;;;;;5072676;28;20093;-60
2021/04/20 00:36:01;;;;;;;157.18;57.15;;;2.90;99.90;;;;;;5067795;28;20051;-62
2021/04/20 00:38:27;;;;;;;156.57;57.47;;;2.90;99.90;;;;;;5058098;28;20032;-63
2021/04/20 00:40:52;;;;;;;208.95;68.45;;;2.90;99.90;;;;;;5054392;28;20025;-61
2021/04/20 00:43:18;;;;;;;201.35;68.22;;;3.00;99.90;;;;;;5059107;28;20032;-62
2021/04/20 00:45:44;;;;;;;245.10;75.50;;;3.00;99.90;;;;;;5054219;28;20029;-63
2021/04/20 00:48:10;;;;;;;213.30;70.30;;;3.10;99.90;;;;;;5061153;28;20036;-62
2021/04/20 00:50:40;;;;;;;216.98;71.43;;;3.10;99.90;;;;;;5068358;28;20102;-62
2021/04/20 00:53:08;;;;;;;197.05;67.72;;;3.20;99.90;;;;;;5073747;28;20481;-62
2021/04/20 00:55:35;;;;;;;194.75;66.63;;;3.20;99.90;;;;;;5065448;28;20095;-62
2021/04/20 00:58:01;;;;;;;160.88;59.22;;;3.20;99.90;;;;;;5073437;28;20600;-62
2021/04/20 01:00:30;;;;;;;162.25;59.78;;;3.20;99.90;;;;;;5074436;28;20115;-63
2021/04/20 01:02:56;;;;;;;144.70;56.15;;;3.10;99.90;;;;;;5060212;28;20119;-62
2021/04/20 01:05:26;;;;;;;150.65;56.53;;;3.00;99.90;;;;;;5063551;28;20103;-61
2021/04/20 01:08:06;;;;;;;139.65;53.83;;;2.90;99.90;;;;;;5071147;28;20472;-62
2021/04/20 01:10:38;;;;;;;141.38;55.33;;;2.90;99.90;;;;;;5054551;28;20025;-62
2021/04/20 01:13:05;;;;;;;161.40;56.40;;;2.80;99.90;;;;;;5073053;28;20130;-62
2021/04/20 01:15:32;;;;;;;163.02;60.05;;;2.80;99.90;;;;;;5060385;28;20033;-62
2021/04/20 01:18:09;;;;;;;167.40;58.72;;;2.70;99.90;;;;;;5053340;28;20021;-63
2021/04/20 01:20:35;;;;;;;175.27;60.30;;;2.70;99.90;;;;;;5059406;28;20036;-63
2021/04/20 01:23:02;;;;;;;171.63;59.85;;;2.70;99.90;;;;;;5054579;28;20045;-63
2021/04/20 01:25:28;;;;;;;195.73;65.30;;;2.70;99.90;;;;;;5072211;28;20048;-63
2021/04/20 01:27:54;;;;;;;204.93;65.43;;;2.80;99.90;;;;;;5071968;28;20028;-60
2021/04/20 01:30:20;;;;;;;216.35;67.78;;;2.80;99.90;;;;;;5062997;28;20039;-62
2021/04/20 01:32:46;;;;;;;208.60;67.47;;;2.90;99.90;;;;;;5065507;28;20032;-63
2021/04/20 01:35:13;;;;;;;194.77;65.22;;;3.00;99.90;;;;;;5073414;28;20386;-62
2021/04/20 01:37:39;;;;;;;189.50;62.90;;;3.10;99.90;;;;;;5054046;28;20040;-62
2021/04/20 01:40:07;;;;;;;198.70;66.45;;;3.10;99.90;;;;;;5061268;28;20037;-62
2021/04/20 01:42:33;;;;;;;234.60;73.00;;;3.10;99.90;;;;;;5053900;28;20044;-63
2021/04/20 01:44:59;;;;;;;223.15;71.65;;;3.20;99.90;;;;;;5057414;28;20500;-63
2021/04/20 01:47:25;;;;;;;209.18;71.78;;;3.30;99.90;;;;;;5062394;28;20091;-62
2021/04/20 01:49:51;;;;;;;213.13;68.85;;;3.30;99.90;;;;;;5053136;28;20025;-62
2021/04/20 01:52:17;;;;;;;203.82;71.30;;;3.40;99.90;;;;;;5065984;28;20462;-62
2021/04/20 01:54:42;;;;;;;215.68;72.10;;;3.40;99.90;;;;;;5072788;28;20028;-65
2021/04/20 01:57:10;;;;;;;195.07;71.20;;;3.40;99.90;;;;;;5069411;28;20427;-62
2021/04/20 01:59:36;;;;;;;197.75;72.45;;;3.40;99.90;;;;;;5053881;28;20440;-62
2021/04/20 02:02:02;;;;;;;199.45;73.38;;;3.50;99.90;;;;;;5052988;28;20120;-61
2021/04/20 02:04:28;;;;;;;205.73;70.40;;;3.50;99.90;;;;;;5063215;28;20371;-62
2021/04/20 02:06:54;;;;;;;181.18;71.28;;;3.50;99.90;;;;;;5063835;28;20077;-62
2021/04/20 02:09:20;;;;;;;171.68;68.50;;;3.50;99.90;;;;;;5073101;28;20020;-62
2021/04/20 02:11:46;;;;;;;158.30;63.33;;;3.40;99.90;;;;;;5059991;28;20025;-65
2021/04/20 02:14:12;;;;;;;147.60;60.60;;;3.50;99.90;;;;;;5053879;28;20033;-62
2021/04/20 02:16:38;;;;;;;154.18;63.35;;;3.50;99.90;;;;;;5061801;28;20024;-61
2021/04/20 02:19:07;;;;;;;157.45;65.25;;;3.40;99.90;;;;;;5071820;28;20595;-61
2021/04/20 02:21:34;;;;;;;155.18;61.72;;;3.40;99.90;;;;;;5072699;28;20025;-63
2021/04/20 02:24:00;;;;;;;146.82;58.55;;;3.30;99.90;;;;;;5053348;28;20041;-62
2021/04/20 02:26:32;;;;;;;144.60;58.58;;;3.20;99.90;;;;;;5065943;28;20035;-64
2021/04/20 02:29:02;;;;;;;146.05;60.30;;;3.10;99.90;;;;;;5063802;28;20090;-64
2021/04/20 02:31:28;;;;;;;145.85;58.95;;;3.10;99.90;;;;;;5057012;28;20020;-62
2021/04/20 02:33:55;;;;;;;146.90;57.80;;;3.10;99.90;;;;;;5070680;28;20077;-63
2021/04/20 02:36:24;;;;;;;144.23;58.28;;;3.00;99.90;;;;;;5054527;28;20471;-65
2021/04/20 02:38:51;;;;;;;133.82;54.50;;;2.90;99.90;;;;;;5064579;28;20024;-64
2021/04/20 02:41:18;;;;;;;122.13;51.58;;;2.90;99.90;;;;;;5064315;28;20065;-63
2021/04/20 02:43:45;;;;;;;139.60;57.10;;;2.80;99.90;;;;;;5051189;28;20033;-66
2021/04/20 02:46:13;;;;;;;181.73;68.53;;;2.80;99.90;;;;;;5053277;28;20470;-63
2021/04/20 02:48:38;;;;;;;148.30;61.40;;;2.80;99.90;;;;;;5069093;28;20098;-63
2021/04/20 02:51:10;;;;;;;141.40;62.75;;;2.80;99.90;;;;;;5058669;28;20107;-63
2021/04/20 02:53:36;;;;;;;126.18;55.72;;;2.80;99.90;;;;;;5060240;28;20465;-65
2021/04/20 02:56:02;;;;;;;116.60;53.25;;;2.80;99.90;;;;;;5071046;28;20035;-63
2021/04/20 02:58:29;;;;;;;124.88;55.88;;;2.80;99.90;;;;;;5057518;28;20045;-63
2021/04/20 03:01:20;;;;;;;119.10;54.05;;;2.80;99.90;;;;;;5061132;28;20100;-63
2021/04/20 03:03:47;;;;;;;111.03;51.97;;;2.70;99.90;;;;;;5064594;28;20040;-66
2021/04/20 03:06:14;;;;;;;106.13;49.25;;;2.70;99.90;;;;;;5051030;28;20025;-63
2021/04/20 03:08:42;;;;;;;109.45;49.85;;;2.60;99.90;;;;;;5059470;28;20025;-63
2021/04/20 03:11:14;;;;;;;115.35;52.25;;;2.60;99.90;;;;;;5054030;28;20021;-61
2021/04/20 03:13:43;;;;;;;115.07;53.40;;;2.60;99.90;;;;;;5052460;28;20024;-63
2021/04/20 03:16:11;;;;;;;120.30;53.85;;;2.60;99.90;;;;;;5057915;28;20089;-63
2021/04/20 03:18:38;;;;;;;109.55;52.60;;;2.60;99.90;;;;;;5069040;28;20067;-63
2021/04/20 03:21:14;;;;;;;115.55;51.88;;;2.60;99.90;;;;;;5051424;28;20043;-63
2021/04/20 03:23:41;;;;;;;132.52;58.08;;;2.60;99.90;;;;;;5067989;28;20489;-63
2021/04/20 03:26:36;;;;;;;131.23;57.65;;;2.70;99.90;;;;;;5050973;28;20071;-64
2021/04/20 03:29:04;;;;;;;133.48;56.05;;;2.70;99.90;;;;;;5058627;28;20075;-60
2021/04/20 03:31:30;;;;;;;154.52;61.50;;;2.80;99.90;;;;;;5058686;28;20480;-61
2021/04/20 03:34:22;;;;;;;130.05;57.08;;;2.90;99.90;;;;;;5057159;28;20040;-65
2021/04/20 03:36:58;;;;;;;126.38;54.63;;;2.90;99.90;;;;;;5052064;28;20473;-67
2021/04/20 03:39:26;;;;;;;128.20;54.40;;;3.00;99.90;;;;;;5060298;28;20027;-62
2021/04/20 03:42:02;;;;;;;133.70;54.88;;;3.00;99.90;;;;;;5056664;28;20016;-63
2021/04/20 03:44:52;;;;;;;129.10;55.47;;;3.10;99.90;;;;;;5059058;28;20116;-64
2021/04/20 03:47:25;;;;;;;119.28;52.72;;;3.10;99.90;;;;;;5061006;28;20097;-64
2021/04/20 03:49:53;;;;;;;123.53;52.85;;;3.10;99.90;;;;;;5059634;28;20521;-61
2021/04/20 03:52:23;;;;;;;124.78;53.35;;;3.10;99.90;;;;;;5060833;28;20028;-63
2021/04/20 03:54:50;;;;;;;124.63;53.50;;;3.20;99.90;;;;;;5058278;28;20045;-66
2021/04/20 03:57:18;;;;;;;121.78;52.03;;;3.20;99.90;;;;;;5061070;28;20094;-64
2021/04/20 03:59:45;;;;;;;137.48;55.40;;;3.20;99.90;;;;;;5059167;28;20402;-61
2021/04/20 04:02:12;;;;;;;150.23;59.90;;;3.20;99.90;;;;;;5058761;28;20025;-62
2021/04/20 04:04:39;;;;;;;149.60;58.03;;;3.20;99.90;;;;;;5062961;28;20521;-63
2021/04/20 04:07:05;;;;;;;167.10;60.72;;;3.20;99.90;;;;;;5061621;28;20132;-61
2021/04/20 04:09:32;;;;;;;195.10;70.20;;;3.20;99.90;;;;;;5060022;28;20025;-61
2021/04/20 04:12:05;;;;;;;201.95;70.47;;;3.30;99.90;;;;;;5059741;28;20489;-64
2021/04/20 04:14:33;;;;;;;182.20;69.20;;;3.20;99.90;;;;;;5058863;28;20131;-62
2021/04/20 04:17:05;;;;;;;159.05;63.03;;;3.30;99.90;;;;;;5056673;28;21500;-63
2021/04/20 04:19:38;;;;;;;175.05;63.10;;;3.30;99.90;;;;;;5060730;28;20430;-66
2021/04/20 04:22:10;;;;;;;179.23;66.25;;;3.30;99.90;;;;;;5055987;28;20033;-65
2021/04/20 04:24:56;;;;;;;185.75;66.53;;;3.30;99.90;;;;;;5059409;28;20093;-61
2021/04/20 04:27:34;;;;;;;183.13;63.67;;;3.30;99.90;;;;;;5059170;28;20037;-63
2021/04/20 04:30:20;;;;;;;169.95;61.03;;;3.30;99.90;;;;;;5059059;28;20036;-62
2021/04/20 04:32:47;;;;;;;189.88;66.40;;;3.30;99.90;;;;;;5057737;28;20024;-66
2021/04/20 04:35:13;;;;;;;183.13;65.60;;;3.30;99.90;;;;;;5060906;28;20029;-64
2021/04/20 04:37:41;;;;;;;185.32;65.57;;;3.30;99.90;;;;;;5058187;28;20429;-64
2021/04/20 04:40:08;;;;;;;172.23;62.95;;;3.30;99.90;;;;;;5057889;28;20028;-63
2021/04/20 04:42:35;;;;;;;162.88;59.22;;;3.20;99.90;;;;;;5056456;28;20037;-64
2021/04/20 04:45:08;;;;;;;159.90;59.65;;;3.20;99.90;;;;;;5057545;28;20465;-64
2021/04/20 04:47:34;;;;;;;160.82;61.10;;;3.20;99.90;;;;;;5059396;28;20096;-62
2021/04/20 04:50:01;;;;;;;162.20;64.75;;;3.20;99.90;;;;;;5059497;28;20120;-63
2021/04/20 04:52:28;;;;;;;143.32;59.63;;;3.30;99.90;;;;;;5063532;28;20167;-62
2021/04/20 04:54:54;;;;;;;117.28;54.35;;;3.30;99.90;;;;;;5058698;28;20040;-66
2021/04/20 04:57:23;;;;;;;104.93;49.50;;;3.30;99.90;;;;;;5059636;28;20041;-63
2021/04/20 04:59:50;;;;;;;108.97;52.50;;;3.30;99.90;;;;;;5060394;28;20037;-66
2021/04/20 05:02:16;;;;;;;105.22;50.50;;;3.30;99.90;;;;;;5054135;28;20067;-62
2021/04/20 05:04:42;;;;;;;109.78;50.97;;;3.30;99.90;;;;;;5069264;28;20048;-63
2021/04/20 05:07:08;;;;;;;96.38;48.05;;;3.20;99.90;;;;;;5058885;28;20669;-63
2021/04/20 05:09:34;;;;;;;113.53;53.03;;;3.20;99.90;;;;;;5050764;28;20025;-60
2021/04/20 05:12:00;;;;;;;112.57;52.50;;;3.20;99.90;;;;;;5050956;28;20040;-63
2021/04/20 05:14:26;;;;;;;117.22;55.97;;;3.20;99.90;;;;;;5054672;28;20031;-63
2021/04/20 05:16:53;;;;;;;124.90;57.58;;;3.20;99.90;;;;;;5053704;28;20025;-66
2021/04/20 05:19:33;;;;;;;95.97;48.58;;;3.30;99.90;;;;;;5074129;28;20033;-64
2021/04/20 05:21:59;;;;;;;97.00;48.03;;;3.30;99.90;;;;;;5053770;28;20099;-63
2021/04/20 05:24:25;;;;;;;91.15;46.45;;;3.40;99.90;;;;;;5072368;28;20068;-65
2021/04/20 05:26:52;;;;;;;91.68;46.13;;;3.40;99.90;;;;;;5066343;28;20029;-66
2021/04/20 05:29:18;;;;;;;96.90;49.72;;;3.40;99.90;;;;;;5056250;28;20035;-65
2021/04/20 05:31:44;;;;;;;100.20;47.70;;;3.40;99.90;;;;;;5065248;28;20035;-61
2021/04/20 05:34:10;;;;;;;90.68;47.20;;;3.30;99.90;;;;;;5059639;28;20056;-64
2021/04/20 05:36:36;;;;;;;114.25;52.65;;;3.40;99.90;;;;;;5072074;28;20060;-63
2021/04/20 05:39:07;;;;;;;110.22;54.00;;;3.40;99.90;;;;;;5053231;28;20071;-62
2021/04/20 05:41:35;;;;;;;113.35;52.78;;;3.40;99.90;;;;;;5054350;28;20099;-64
2021/04/20 05:44:05;;;;;;;124.97;55.72;;;3.50;99.90;;;;;;5062032;28;20037;-62
2021/04/20 05:46:31;;;;;;;121.82;55.25;;;3.50;99.90;;;;;;5058706;28;20060;-62
2021/04/20 05:48:57;;;;;;;109.05;51.17;;;3.60;99.90;;;;;;5072956;28;20071;-63
2021/04/20 05:51:24;;;;;;;115.70;52.25;;;3.70;99.90;;;;;;5062913;28;20032;-62
2021/04/20 05:53:52;;;;;;;110.70;52.70;;;3.80;99.90;;;;;;5063585;28;20043;-66
2021/04/20 05:56:19;;;;;;;87.35;47.35;;;3.80;99.90;;;;;;5056147;28;20056;-61
2021/04/20 05:58:46;;;;;;;80.15;45.53;;;3.90;99.90;;;;;;5074356;28;20060;-63
2021/04/20 06:01:12;;;;;;;77.60;44.72;;;3.90;99.90;;;;;;5061190;28;20107;-63
2021/04/20 06:03:40;;;;;;;71.47;41.05;;;4.00;99.90;;;;;;5064116;28;20037;-63
2021/04/20 06:06:07;;;;;;;70.93;41.67;;;4.10;99.90;;;;;;5068455;28;20029;-62
2021/04/20 06:08:37;;;;;;;70.30;39.80;;;4.10;99.90;;;;;;5053471;28;20025;-61
2021/04/20 06:11:04;;;;;;;73.93;43.15;;;4.10;99.90;;;;;;5072108;28;20027;-62
2021/04/20 06:13:31;;;;;;;73.45;41.97;;;4.20;99.90;;;;;;5072099;28;20064;-72
2021/04/20 06:15:57;;;;;;;67.38;41.15;;;4.20;99.90;;;;;;5073108;28;20423;-73
2021/04/20 06:18:24;;;;;;;78.47;43.90;;;4.40;99.90;;;;;;5065260;28;20025;-72
2021/04/20 06:20:53;;;;;;;73.57;44.05;;;4.60;99.90;;;;;;5056077;28;20086;-71
2021/04/20 06:23:19;;;;;;;77.95;44.83;;;4.80;99.90;;;;;;5071799;28;20078;-71
2021/04/20 06:25:46;;;;;;;75.93;43.13;;;4.90;99.90;;;;;;5056352;28;20044;-71
2021/04/20 06:28:12;;;;;;;74.10;44.08;;;5.00;99.90;;;;;;5052653;28;20025;-71
2021/04/20 06:30:38;;;;;;;71.13;42.55;;;5.00;99.90;;;;;;5065556;28;20085;-71
2021/04/20 06:33:05;;;;;;;69.60;42.35;;;5.10;99.90;;;;;;5060065;28;20071;-72
2021/04/20 06:35:32;;;;;;;62.30;39.08;;;5.20;99.90;;;;;;5070940;28;20020;-70
2021/04/20 06:37:58;;;;;;;59.28;38.70;;;5.20;99.90;;;;;;5055401;28;20029;-61
2021/04/20 06:40:31;;;;;;;57.90;36.92;;;5.40;99.90;;;;;;5052983;28;20484;-60
2021/04/20 06:43:03;;;;;;;54.00;35.22;;;5.50;99.90;;;;;;5052326;28;20146;-61
2021/04/20 06:45:43;;;;;;;65.07;38.58;;;5.60;99.90;;;;;;5064209;28;20029;-61
2021/04/20 06:48:46;;;;;;;59.42;38.22;;;5.70;99.90;;;;;;5055844;28;20029;-62
2021/04/20 06:51:20;;;;;;;57.45;33.33;;;5.80;99.90;;;;;;5066615;28;20669;-62
2021/04/20 06:53:49;;;;;;;49.83;34.38;;;5.90;99.90;;;;;;5054765;28;20048;-62
2021/04/20 06:56:48;;;;;;;51.78;33.45;;;6.00;99.90;;;;;;5059705;28;20060;-62
2021/04/20 06:59:34;;;;;;;48.05;31.52;;;6.10;99.90;;;;;;5051723;28;20057;-63
2021/04/20 07:02:09;;;;;;;47.50;31.48;;;6.10;99.90;;;;;;5051813;28;20035;-62
2021/04/20 07:04:45;;;;;;;39.25;28.38;;;6.20;99.90;;;;;;5052127;28;20040;-63
2021/04/20 07:07:14;;;;;;;41.55;29.63;;;6.30;99.90;;;;;;5066112;28;20469;-61
2021/04/20 07:09:44;;;;;;;38.50;27.23;;;6.30;99.90;;;;;;5060053;28;20099;-61
2021/04/20 07:12:12;;;;;;;37.35;27.42;;;6.50;99.90;;;;;;5058787;28;20062;-58
2021/04/20 07:14:47;;;;;;;37.67;27.05;;;6.60;99.90;;;;;;5066849;28;20439;-62
2021/04/20 07:17:28;;;;;;;40.42;28.08;;;6.70;99.90;;;;;;5052861;28;20279;-62
2021/04/20 07:20:00;;;;;;;37.90;27.73;;;6.90;99.90;;;;;;5050974;28;20029;-63
2021/04/20 07:23:04;;;;;;;36.47;26.10;;;7.00;99.90;;;;;;5057282;28;20116;-61
2021/04/20 07:25:54;;;;;;;35.92;25.05;;;7.30;99.90;;;;;;5040314;28;20395;-62
2021/04/20 07:28:37;;;;;;;38.75;25.55;;;7.40;99.90;;;;;;5068983;28;20071;-61
2021/04/20 07:31:08;;;;;;;34.67;23.63;;;7.50;99.90;;;;;;5070469;28;20223;-63
2021/04/20 07:33:57;;;;;;;34.42;25.35;;;7.60;99.90;;;;;;5054174;28;20040;-61
2021/04/20 07:36:57;;;;;;;36.65;25.60;;;7.60;99.90;;;;;;5053822;28;20104;-62
2021/04/20 07:39:24;;;;;;;35.20;25.27;;;7.70;99.90;;;;;;5052719;28;20075;-61
2021/04/20 07:42:23;;;;;;;34.38;24.38;;;7.90;99.90;;;;;;5051345;28;20496;-66
2021/04/20 07:45:14;;;;;;;35.42;25.33;;;8.00;99.90;;;;;;5062071;28;20090;-61
2021/04/20 07:47:47;;;;;;;37.90;25.67;;;8.00;99.90;;;;;;5056604;28;20028;-62
2021/04/20 07:50:24;;;;;;;41.08;27.60;;;8.10;99.90;;;;;;5057147;28;20147;-62
2021/04/20 07:52:58;;;;;;;39.63;26.15;;;8.10;99.90;;;;;;5051572;28;20517;-62
2021/04/20 07:55:38;;;;;;;42.38;27.80;;;8.20;99.90;;;;;;5059047;28;20546;-63
2021/04/20 07:58:07;;;;;;;42.35;27.15;;;8.20;99.90;;;;;;5068671;28;20041;-62
2021/04/20 08:00:37;;;;;;;39.95;26.48;;;8.30;99.90;;;;;;5058556;28;20147;-62
2021/04/20 08:03:30;;;;;;;38.95;26.48;;;8.40;99.90;;;;;;5051920;28;20090;-63
2021/04/20 08:06:14;;;;;;;39.90;27.30;;;8.60;99.90;;;;;;5054499;28;20037;-62
2021/04/20 08:08:49;;;;;;;39.90;26.83;;;8.90;99.90;;;;;;5052106;28;20381;-63
2021/04/20 08:11:22;;;;;;;35.88;25.55;;;9.10;99.90;;;;;;5057866;28;20033;-62
2021/04/20 08:14:01;;;;;;;37.42;26.35;;;9.20;99.90;;;;;;5065629;28;20036;-61
2021/04/20 08:16:48;;;;;;;37.35;26.35;;;9.30;99.90;;;;;;5063960;28;20048;-63
2021/04/20 08:19:27;;;;;;;38.28;25.48;;;9.50;99.90;;;;;;5054116;28;20207;-62
2021/04/20 08:21:55;;;;;;;41.00;25.65;;;9.60;99.90;;;;;;5064598;28;20086;-65
2021/04/20 08:24:28;;;;;;;38.13;25.75;;;9.70;99.90;;;;;;5058133;28;20028;-62
2021/04/20 08:27:00;;;;;;;37.25;25.50;;;9.80;99.80;;;;;;5068706;28;20526;-65
2021/04/20 08:29:29;;;;;;;42.42;26.85;;;9.80;99.90;;;;;;5070583;28;20025;-62
2021/04/20 08:31:59;;;;;;;44.10;26.60;;;9.90;97.50;;;;;;5053482;28;20041;-65
2021/04/20 08:34:37;;;;;;;42.53;26.38;;;10.00;96.60;;;;;;5051234;28;20033;-62
2021/04/20 08:37:06;;;;;;;38.95;25.98;;;10.10;97.20;;;;;;5052415;28;20030;-62
2021/04/20 08:40:00;;;;;;;40.80;26.30;;;10.10;96.70;;;;;;5062288;28;20480;-62
2021/04/20 08:42:49;;;;;;;42.42;26.83;;;10.20;96.60;;;;;;5067772;28;20306;-61
2021/04/20 08:45:23;;;;;;;37.60;24.67;;;10.30;95.00;;;;;;5064703;28;20021;-61
2021/04/20 08:48:01;;;;;;;34.47;24.75;;;10.40;93.70;;;;;;5055963;28;20452;-63
2021/04/20 08:50:29;;;;;;;36.47;24.27;;;10.50;93.30;;;;;;5055454;28;20029;-62
2021/04/20 08:53:27;;;;;;;35.88;23.88;;;10.60;90.80;;;;;;5061087;28;20028;-64
2021/04/20 08:56:25;;;;;;;34.53;23.73;;;10.80;89.70;;;;;;5023709;28;20071;-64
2021/04/20 08:59:20;;;;;;;36.92;25.63;;;10.80;85.40;;;;;;5062493;28;20053;-61
2021/04/20 09:01:54;;;;;;;34.75;24.25;;;10.80;86.70;;;;;;5065763;28;20090;-62
2021/04/20 09:04:45;;;;;;;36.85;24.02;;;10.80;89.60;;;;;;5065742;28;20549;-62
2021/04/20 09:07:26;;;;;;;28.33;19.80;;;11.10;84.70;;;;;;5056246;28;20024;-61
2021/04/20 09:09:55;;;;;;;31.70;20.60;;;11.30;82.40;;;;;;5072590;28;20027;-62
2021/04/20 09:12:22;;;;;;;31.05;22.10;;;11.40;79.70;;;;;;5058370;28;20088;-61
2021/04/20 09:14:49;;;;;;;32.33;20.20;;;11.50;80.90;;;;;;5063125;28;20029;-62
2021/04/20 09:17:20;;;;;;;27.02;18.98;;;11.70;79.20;;;;;;5071315;28;20114;-61
2021/04/20 09:20:00;;;;;;;28.58;18.10;;;11.80;76.20;;;;;;5060302;28;20029;-61
2021/04/20 09:23:02;;;;;;;32.05;21.17;;;11.90;77.20;;;;;;5069917;28;20362;-62
2021/04/20 09:25:42;;;;;;;31.55;20.60;;;12.20;76.50;;;;;;5054346;28;20037;-61
2021/04/20 09:28:23;;;;;;;33.75;22.75;;;12.40;76.00;;;;;;5067561;28;20154;-63
2021/04/20 09:31:02;;;;;;;32.67;20.95;;;12.60;74.50;;;;;;5054449;28;20104;-63
2021/04/20 09:33:42;;;;;;;29.52;21.55;;;12.60;72.90;;;;;;5061756;28;20474;-64
2021/04/20 09:36:12;;;;;;;34.63;23.23;;;12.50;74.40;;;;;;5070114;28;20057;-64
2021/04/20 09:38:43;;;;;;;29.45;21.35;;;12.60;75.40;;;;;;5066404;28;20033;-62
2021/04/20 09:41:10;;;;;;;27.33;18.85;;;12.70;74.80;;;;;;5061059;28;20040;-62
2021/04/20 09:43:55;;;;;;;29.40;20.52;;;12.80;71.10;;;;;;5053518;28;20489;-65
2021/04/20 09:46:32;;;;;;;26.45;19.05;;;12.90;71.80;;;;;;5055014;28;20056;-62
2021/04/20 09:49:06;;;;;;;27.95;19.02;;;12.90;70.50;;;;;;5061290;28;20056;-65
2021/04/20 09:51:38;;;;;;;26.35;19.45;;;12.90;71.20;;;;;;5063843;28;20039;-62
2021/04/20 09:54:12;;;;;;;28.20;20.15;;;13.10;70.10;;;;;;5072865;28;20056;-62
2021/04/20 09:56:43;;;;;;;29.73;20.98;;;13.20;71.50;;;;;;5071753;28;20078;-62
2021/04/20 09:59:37;;;;;;;29.38;20.58;;;13.50;72.70;;;;;;5053476;28;20052;-62
2021/04/20 10:02:03;;;;;;;26.20;16.50;;;13.60;68.80;;;;;;5071701;28;20082;-60
2021/04/20 10:04:48;;;;;;;26.55;18.13;;;13.50;66.90;;;;;;5068915;28;20367;-66
2021/04/20 10:07:34;;;;;;;27.80;19.70;;;13.50;67.70;;;;;;5060031;28;20082;-61
2021/04/20 10:10:15;;;;;;;23.88;17.90;;;13.40;68.50;;;;;;5068097;28;20035;-63
2021/04/20 10:12:59;;;;;;;;;;;13.50;67.80;;;;;;5054974;28;20146;-61
2021/04/20 10:15:37;;;;;;;32.95;21.33;;;13.50;69.00;;;;;;5053079;28;19912;-62
2021/04/20 10:18:29;;;;;;;27.67;20.33;;;13.80;68.30;;;;;;5066331;28;20122;-64
2021/04/20 10:21:17;;;;;;;27.00;18.92;;;13.80;68.50;;;;;;5069796;28;20060;-62
2021/04/20 10:24:07;;;;;;;18.75;14.18;;;13.60;67.70;;;;;;5062459;28;20481;-65
2021/04/20 10:26:45;;;;;;;17.10;13.03;;;13.40;66.80;;;;;;5070947;28;20032;-66
2021/04/20 10:29:33;;;;;;;20.92;15.68;;;13.40;65.30;;;;;;5067154;28;20275;-64
2021/04/20 10:32:06;;;;;;;21.77;16.02;;;13.70;65.70;;;;;;5052944;28;20025;-70
2021/04/20 10:34:35;;;;;;;23.85;18.05;;;13.80;65.30;;;;;;5053087;28;20059;-63
2021/04/20 10:37:01;;;;;;;24.67;16.55;;;13.90;67.00;;;;;;5068439;28;20055;-67
2021/04/20 10:39:30;;;;;;;18.63;13.88;;;14.20;66.30;;;;;;5057289;28;20465;-64
2021/04/20 10:41:56;;;;;;;14.02;10.13;;;14.40;64.40;;;;;;5064744;28;20087;-64
2021/04/20 10:44:31;;;;;;;20.40;13.35;;;14.70;59.20;;;;;;5059280;28;20041;-64
2021/04/20 10:46:58;;;;;;;22.27;15.73;;;14.70;62.70;;;;;;5053016;28;20041;-77
2021/04/20 10:49:26;;;;;;;19.25;13.98;;;15.00;63.20;;;;;;5072213;28;20037;-79
2021/04/20 10:51:58;;;;;;;19.70;14.68;;;15.40;60.60;;;;;;5059056;28;20104;-80
2021/04/20 10:54:29;;;;;;;21.65;15.20;;;15.40;60.60;;;;;;5063149;28;20147;-81
2021/04/20 10:56:56;;;;;;;19.67;15.48;;;15.60;60.10;;;;;;5072378;28;20039;-81
2021/04/20 10:59:28;;;;;;;21.33;15.23;;;15.50;59.40;;;;;;5072519;28;20032;-81
2021/04/20 11:01:59;;;;;;;18.88;13.15;;;15.50;60.00;;;;;;5075073;28;20028;-81
2021/04/20 11:04:27;;;;;;;17.00;13.00;;;15.50;57.90;;;;;;5072734;28;20050;-82
2021/04/20 11:07:16;;;;;;;15.18;11.25;;;15.50;59.30;;;;;;5073159;28;20489;-83
2021/04/20 11:09:42;;;;;;;16.55;12.15;;;15.60;55.90;;;;;;5060168;28;20024;-83
2021/04/20 11:12:17;;;;;;;14.77;11.63;;;15.70;57.00;;;;;;5067904;28;20055;-84
2021/04/20 11:14:51;;;;;;;17.63;12.57;;;15.80;56.60;;;;;;5056085;28;20025;-84
2021/04/20 11:17:25;;;;;;;14.57;11.35;;;16.10;56.60;;;;;;5065210;28;20166;-84
2021/04/20 11:20:14;;;;;;;14.77;11.68;;;16.30;55.50;;;;;;5064965;28;20031;-84
2021/04/20 11:22:47;;;;;;;17.73;13.20;;;16.50;55.00;;;;;;5057378;28;20127;-84
2021/04/20 11:25:35;;;;;;;18.10;14.13;;;16.50;55.30;;;;;;5056648;28;20079;-84
2021/04/20 11:28:09;;;;;;;20.42;14.50;;;16.30;56.00;;;;;;5052152;28;20029;-83
2021/04/20 11:30:42;;;;;;;19.60;14.50;;;16.00;56.10;;;;;;5069647;28;20028;-85
2021/04/20 11:33:14;;;;;;;20.15;14.38;;;15.70;57.60;;;;;;5057635;28;20032;-83
2021/04/20 11:35:47;;;;;;;20.67;15.15;;;15.70;57.90;;;;;;5072734;28;20017;-84
2021/04/20 11:38:15;;;;;;;16.13;12.70;;;15.80;57.90;;;;;;5072316;28;20025;-84
2021/04/20 11:40:48;;;;;;;17.88;11.80;;;15.90;58.00;;;;;;5070352;28;20067;-85
2021/04/20 11:43:15;;;;;;;13.75;10.13;;;16.20;55.00;;;;;;5065678;28;20028;-84
2021/04/20 11:45:42;;;;;;;11.85;9.55;;;16.70;52.50;;;;;;5061738;28;20029;-84
2021/04/20 11:48:15;;;;;;;9.77;8.63;;;16.90;52.60;;;;;;5067631;28;20103;-85
2021/04/20 11:50:50;;;;;;;12.90;10.18;;;16.90;51.50;;;;;;5070973;28;20028;-85
2021/04/20 11:53:17;;;;;;;11.75;8.95;;;17.00;51.40;;;;;;5062926;28;20077;-84
2021/04/20 11:55:45;;;;;;;10.05;8.02;;;17.00;50.50;;;;;;5055104;28;20037;-85
2021/04/20 11:58:26;;;;;;;10.35;7.80;;;16.90;50.20;;;;;;5062816;28;20049;-85
2021/04/20 12:00:58;;;;;;;10.27;8.60;;;16.70;51.00;;;;;;5062938;28;20493;-85
2021/04/20 12:03:25;;;;;;;15.52;10.55;;;16.50;51.80;;;;;;5065045;28;20031;-66
2021/04/20 12:05:55;;;;;;;13.18;10.43;;;16.50;53.50;;;;;;5051506;28;20029;-65
2021/04/20 12:08:32;;;;;;;12.10;8.95;;;16.60;53.30;;;;;;5052583;28;20044;-65
2021/04/20 12:10:59;;;;;;;10.77;9.60;;;16.30;53.30;;;;;;5066877;28;20062;-66
2021/04/20 12:13:31;;;;;;;9.65;8.65;;;16.20;53.60;;;;;;5057086;28;20519;-66
2021/04/20 12:16:04;;;;;;;9.65;8.23;;;16.10;54.00;;;;;;5060676;28;20024;-65
2021/04/20 12:18:30;;;;;;;11.00;8.70;;;16.10;54.90;;;;;;5057659;28;20029;-64
2021/04/20 12:21:02;;;;;;;10.15;8.15;;;16.20;53.40;;;;;;5071245;28;20362;-66
2021/04/20 12:23:30;;;;;;;10.95;7.85;;;16.60;52.30;;;;;;5067770;28;20059;-65
2021/04/20 12:25:58;;;;;;;9.73;7.93;;;16.90;50.70;;;;;;5068306;28;20436;-66
2021/04/20 12:28:26;;;;;;;9.68;7.30;;;17.30;50.10;;;;;;5074204;28;20166;-66
2021/04/20 12:30:52;;;;;;;8.00;7.20;;;17.50;48.00;;;;;;5057845;28;20516;-66
2021/04/20 12:33:31;;;;;;;11.70;8.35;;;17.70;47.90;;;;;;5065534;28;20041;-66
2021/04/20 12:35:59;;;;;;;8.95;7.97;;;18.00;47.50;;;;;;5059718;28;20044;-65
2021/04/20 12:38:28;;;;;;;10.48;8.90;;;17.80;48.60;;;;;;5074012;28;20063;-66
2021/04/20 12:41:05;;;;;;;12.15;8.65;;;17.60;49.20;;;;;;5073998;28;20077;-66
2021/04/20 12:43:35;;;;;;;12.85;8.57;;;17.60;49.20;;;;;;5059944;28;20046;-65
2021/04/20 12:46:09;;;;;;;15.75;9.90;;;17.90;48.10;;;;;;5056234;28;20033;-64
2021/04/20 12:48:42;;;;;;;10.68;8.70;;;18.20;48.00;;;;;;5067253;28;20031;-65
2021/04/20 12:51:15;;;;;;;12.00;8.82;;;18.30;47.40;;;;;;5055224;28;20033;-66
2021/04/20 12:53:46;;;;;;;11.32;8.55;;;18.50;46.60;;;;;;5054042;28;20163;-64
2021/04/20 12:56:21;;;;;;;9.10;8.00;;;18.40;46.60;;;;;;5055089;28;20039;-66